sensor_id;sensor_type;location;lat;lon;timestamp;P1;durP1;ratioP1;P2;durP2;ratioP2
79005;SDS011;69202;45.498;-73.582;2023-05-23T00:01:04;4.00;;;2.10;;
79005;SDS011;69202;45.498;-73.582;2023-05-23T00:03:33;3.00;;;2.00;;
79005;SDS011;69202;45.498;-73.582;2023-05-23T00:06:04;4.15;;;2.30;;
79005;SDS011;69202;45.498;-73.582;2023-05-23T00:08:31;5.28;;;2.33;;
79005;SDS011;69202;45.498;-73.582;2023-05-23T00:10:57;5.35;;;2.80;;
79005;SDS011;69202;45.498;-73.582;2023-05-23T00:13:23;4.50;;;2.28;;
79005;SDS011;69202;45.498;-73.582;2023-05-23T00:15:49;4.57;;;2.10;;
79005;SDS011;69202;45.498;-73.582;2023-05-23T00:18:15;5.22;;;2.45;;
79005;SDS011;69202;45.498;-73.582;2023-05-23T00:20:41;5.38;;;2.40;;
79005;SDS011;69202;45.498;-73.582;2023-05-23T00:23:08;3.90;;;2.90;;
79005;SDS011;69202;45.498;-73.582;2023-05-23T00:25:35;2.75;;;2.13;;
79005;SDS011;69202;45.498;-73.582;2023-05-23T00:28:02;5.32;;;2.15;;
79005;SDS011;69202;45.498;-73.582;2023-05-23T00:30:29;6.25;;;2.67;;
79005;SDS011;69202;45.498;-73.582;2023-05-23T00:32:56;3.15;;;1.95;;
79005;SDS011;69202;45.498;-73.582;2023-05-23T00:35:23;3.45;;;2.03;;
79005;SDS011;69202;45.498;-73.582;2023-05-23T00:37:49;4.50;;;2.13;;
79005;SDS011;69202;45.498;-73.582;2023-05-23T00:40:18;7.55;;;2.50;;
79005;SDS011;69202;45.498;-73.582;2023-05-23T00:42:45;6.30;;;2.22;;
79005;SDS011;69202;45.498;-73.582;2023-05-23T00:45:12;4.90;;;2.20;;
79005;SDS011;69202;45.498;-73.582;2023-05-23T00:47:38;4.50;;;1.80;;
79005;SDS011;69202;45.498;-73.582;2023-05-23T00:50:08;5.75;;;2.28;;
79005;SDS011;69202;45.498;-73.582;2023-05-23T00:52:37;5.43;;;2.13;;
79005;SDS011;69202;45.498;-73.582;2023-05-23T00:55:04;2.47;;;1.98;;
79005;SDS011;69202;45.498;-73.582;2023-05-23T00:57:30;9.95;;;2.20;;
79005;SDS011;69202;45.498;-73.582;2023-05-23T01:00:01;6.68;;;2.10;;
79005;SDS011;69202;45.498;-73.582;2023-05-23T01:02:28;4.15;;;2.35;;
79005;SDS011;69202;45.498;-73.582;2023-05-23T01:04:57;8.90;;;2.10;;
79005;SDS011;69202;45.498;-73.582;2023-05-23T01:07:23;6.35;;;2.38;;
79005;SDS011;69202;45.498;-73.582;2023-05-23T01:09:49;8.90;;;2.80;;
79005;SDS011;69202;45.498;-73.582;2023-05-23T01:12:18;5.82;;;2.42;;
79005;SDS011;69202;45.498;-73.582;2023-05-23T01:17:38;3.03;;;1.92;;
79005;SDS011;69202;45.498;-73.582;2023-05-23T01:20:18;7.35;;;2.30;;
79005;SDS011;69202;45.498;-73.582;2023-05-23T01:28:01;10.57;;;2.38;;
79005;SDS011;69202;45.498;-73.582;2023-05-23T01:30:31;8.43;;;2.65;;
79005;SDS011;69202;45.498;-73.582;2023-05-23T01:33:03;7.93;;;2.40;;
79005;SDS011;69202;45.498;-73.582;2023-05-23T01:35:32;9.63;;;2.83;;
79005;SDS011;69202;45.498;-73.582;2023-05-23T01:37:59;7.00;;;2.35;;
79005;SDS011;69202;45.498;-73.582;2023-05-23T01:40:25;3.60;;;2.63;;
79005;SDS011;69202;45.498;-73.582;2023-05-23T01:42:51;4.15;;;2.35;;
79005;SDS011;69202;45.498;-73.582;2023-05-23T01:45:21;7.32;;;2.40;;
79005;SDS011;69202;45.498;-73.582;2023-05-23T01:47:51;4.70;;;2.47;;
79005;SDS011;69202;45.498;-73.582;2023-05-23T01:50:19;7.20;;;2.92;;
79005;SDS011;69202;45.498;-73.582;2023-05-23T01:52:45;11.05;;;3.03;;
79005;SDS011;69202;45.498;-73.582;2023-05-23T01:55:15;10.75;;;2.95;;
79005;SDS011;69202;45.498;-73.582;2023-05-23T01:57:51;9.15;;;3.17;;
79005;SDS011;69202;45.498;-73.582;2023-05-23T02:00:19;14.43;;;3.42;;
79005;SDS011;69202;45.498;-73.582;2023-05-23T02:02:47;9.13;;;3.28;;
79005;SDS011;69202;45.498;-73.582;2023-05-23T02:05:13;7.00;;;2.97;;
79005;SDS011;69202;45.498;-73.582;2023-05-23T02:07:39;5.35;;;2.83;;
79005;SDS011;69202;45.498;-73.582;2023-05-23T02:10:06;6.05;;;2.80;;
79005;SDS011;69202;45.498;-73.582;2023-05-23T02:12:33;7.00;;;2.75;;
79005;SDS011;69202;45.498;-73.582;2023-05-23T02:14:59;11.70;;;3.15;;
79005;SDS011;69202;45.498;-73.582;2023-05-23T02:17:25;6.18;;;2.67;;
79005;SDS011;69202;45.498;-73.582;2023-05-23T02:19:51;4.47;;;2.30;;
79005;SDS011;69202;45.498;-73.582;2023-05-23T02:22:18;7.97;;;2.97;;
79005;SDS011;69202;45.498;-73.582;2023-05-23T02:24:49;8.93;;;3.28;;
79005;SDS011;69202;45.498;-73.582;2023-05-23T02:27:16;9.20;;;3.33;;
79005;SDS011;69202;45.498;-73.582;2023-05-23T02:29:42;4.43;;;2.95;;
79005;SDS011;69202;45.498;-73.582;2023-05-23T02:32:08;10.73;;;3.10;;
79005;SDS011;69202;45.498;-73.582;2023-05-23T02:34:34;6.00;;;3.35;;
79005;SDS011;69202;45.498;-73.582;2023-05-23T02:37:02;5.93;;;3.20;;
79005;SDS011;69202;45.498;-73.582;2023-05-23T02:39:30;7.10;;;3.10;;
79005;SDS011;69202;45.498;-73.582;2023-05-23T02:41:56;7.15;;;3.10;;
79005;SDS011;69202;45.498;-73.582;2023-05-23T02:44:21;9.23;;;3.40;;
79005;SDS011;69202;45.498;-73.582;2023-05-23T02:46:47;7.78;;;2.85;;
79005;SDS011;69202;45.498;-73.582;2023-05-23T02:49:13;7.75;;;3.15;;
79005;SDS011;69202;45.498;-73.582;2023-05-23T02:51:40;9.80;;;3.00;;
79005;SDS011;69202;45.498;-73.582;2023-05-23T02:54:06;6.57;;;3.20;;
79005;SDS011;69202;45.498;-73.582;2023-05-23T02:56:33;6.95;;;2.90;;
79005;SDS011;69202;45.498;-73.582;2023-05-23T02:59:00;5.05;;;2.75;;
79005;SDS011;69202;45.498;-73.582;2023-05-23T03:01:26;6.18;;;2.90;;
79005;SDS011;69202;45.498;-73.582;2023-05-23T03:03:52;4.75;;;2.50;;
79005;SDS011;69202;45.498;-73.582;2023-05-23T03:06:18;4.97;;;2.70;;
79005;SDS011;69202;45.498;-73.582;2023-05-23T03:08:46;6.43;;;2.55;;
79005;SDS011;69202;45.498;-73.582;2023-05-23T03:11:12;8.55;;;2.67;;
79005;SDS011;69202;45.498;-73.582;2023-05-23T03:13:38;9.60;;;3.83;;
79005;SDS011;69202;45.498;-73.582;2023-05-23T03:16:04;9.20;;;2.80;;
79005;SDS011;69202;45.498;-73.582;2023-05-23T03:18:30;5.80;;;2.83;;
79005;SDS011;69202;45.498;-73.582;2023-05-23T03:20:56;7.07;;;2.72;;
79005;SDS011;69202;45.498;-73.582;2023-05-23T03:23:22;5.90;;;2.40;;
79005;SDS011;69202;45.498;-73.582;2023-05-23T03:25:48;5.57;;;2.55;;
79005;SDS011;69202;45.498;-73.582;2023-05-23T03:28:14;5.78;;;2.65;;
79005;SDS011;69202;45.498;-73.582;2023-05-23T03:30:40;3.92;;;2.45;;
79005;SDS011;69202;45.498;-73.582;2023-05-23T03:33:06;6.57;;;2.85;;
79005;SDS011;69202;45.498;-73.582;2023-05-23T03:35:32;7.25;;;2.58;;
79005;SDS011;69202;45.498;-73.582;2023-05-23T03:37:57;8.02;;;2.70;;
79005;SDS011;69202;45.498;-73.582;2023-05-23T03:40:23;7.05;;;2.60;;
79005;SDS011;69202;45.498;-73.582;2023-05-23T03:43:00;7.05;;;2.67;;
79005;SDS011;69202;45.498;-73.582;2023-05-23T03:45:28;6.72;;;2.65;;
79005;SDS011;69202;45.498;-73.582;2023-05-23T03:47:57;10.38;;;2.45;;
79005;SDS011;69202;45.498;-73.582;2023-05-23T03:50:23;5.63;;;2.40;;
79005;SDS011;69202;45.498;-73.582;2023-05-23T03:52:50;8.95;;;2.35;;
79005;SDS011;69202;45.498;-73.582;2023-05-23T03:55:15;7.68;;;2.60;;
79005;SDS011;69202;45.498;-73.582;2023-05-23T03:57:49;7.35;;;2.83;;
79005;SDS011;69202;45.498;-73.582;2023-05-23T04:00:18;9.35;;;2.72;;
79005;SDS011;69202;45.498;-73.582;2023-05-23T04:02:44;5.75;;;2.55;;
79005;SDS011;69202;45.498;-73.582;2023-05-23T04:05:11;3.70;;;2.70;;
79005;SDS011;69202;45.498;-73.582;2023-05-23T04:07:37;4.07;;;2.35;;
79005;SDS011;69202;45.498;-73.582;2023-05-23T04:10:04;5.20;;;2.35;;
79005;SDS011;69202;45.498;-73.582;2023-05-23T04:12:30;5.68;;;2.70;;
79005;SDS011;69202;45.498;-73.582;2023-05-23T04:14:56;6.45;;;2.78;;
79005;SDS011;69202;45.498;-73.582;2023-05-23T04:17:22;5.50;;;2.45;;
79005;SDS011;69202;45.498;-73.582;2023-05-23T04:19:50;5.10;;;2.63;;
79005;SDS011;69202;45.498;-73.582;2023-05-23T04:22:16;4.88;;;2.50;;
79005;SDS011;69202;45.498;-73.582;2023-05-23T04:24:42;4.18;;;2.33;;
79005;SDS011;69202;45.498;-73.582;2023-05-23T04:27:08;6.47;;;2.35;;
79005;SDS011;69202;45.498;-73.582;2023-05-23T04:29:34;5.18;;;2.40;;
79005;SDS011;69202;45.498;-73.582;2023-05-23T04:32:00;6.00;;;3.00;;
79005;SDS011;69202;45.498;-73.582;2023-05-23T04:34:27;8.10;;;2.15;;
79005;SDS011;69202;45.498;-73.582;2023-05-23T04:36:53;5.32;;;2.70;;
79005;SDS011;69202;45.498;-73.582;2023-05-23T04:39:19;5.30;;;2.58;;
79005;SDS011;69202;45.498;-73.582;2023-05-23T04:41:45;8.07;;;2.40;;
79005;SDS011;69202;45.498;-73.582;2023-05-23T04:44:11;6.38;;;2.45;;
79005;SDS011;69202;45.498;-73.582;2023-05-23T04:46:39;6.70;;;2.50;;
79005;SDS011;69202;45.498;-73.582;2023-05-23T04:49:06;4.03;;;2.20;;
79005;SDS011;69202;45.498;-73.582;2023-05-23T04:51:33;5.40;;;2.35;;
79005;SDS011;69202;45.498;-73.582;2023-05-23T04:53:59;5.82;;;2.33;;
79005;SDS011;69202;45.498;-73.582;2023-05-23T04:56:25;4.10;;;1.95;;
79005;SDS011;69202;45.498;-73.582;2023-05-23T04:58:52;4.78;;;2.20;;
79005;SDS011;69202;45.498;-73.582;2023-05-23T05:01:19;4.18;;;1.95;;
79005;SDS011;69202;45.498;-73.582;2023-05-23T05:03:45;4.95;;;2.08;;
79005;SDS011;69202;45.498;-73.582;2023-05-23T05:06:12;6.25;;;2.63;;
79005;SDS011;69202;45.498;-73.582;2023-05-23T05:08:40;4.00;;;2.20;;
79005;SDS011;69202;45.498;-73.582;2023-05-23T05:11:06;4.55;;;2.50;;
79005;SDS011;69202;45.498;-73.582;2023-05-23T05:13:33;4.05;;;2.22;;
79005;SDS011;69202;45.498;-73.582;2023-05-23T05:15:58;6.85;;;2.40;;
79005;SDS011;69202;45.498;-73.582;2023-05-23T05:18:25;5.43;;;2.42;;
79005;SDS011;69202;45.498;-73.582;2023-05-23T05:20:51;3.78;;;1.92;;
79005;SDS011;69202;45.498;-73.582;2023-05-23T05:23:17;3.85;;;2.30;;
79005;SDS011;69202;45.498;-73.582;2023-05-23T05:25:43;3.03;;;2.25;;
79005;SDS011;69202;45.498;-73.582;2023-05-23T05:28:10;4.18;;;2.40;;
79005;SDS011;69202;45.498;-73.582;2023-05-23T05:30:36;3.50;;;2.08;;
79005;SDS011;69202;45.498;-73.582;2023-05-23T05:33:03;5.95;;;2.08;;
79005;SDS011;69202;45.498;-73.582;2023-05-23T05:35:33;6.55;;;1.90;;
79005;SDS011;69202;45.498;-73.582;2023-05-23T05:37:59;6.82;;;2.00;;
79005;SDS011;69202;45.498;-73.582;2023-05-23T05:40:26;4.70;;;2.35;;
79005;SDS011;69202;45.498;-73.582;2023-05-23T05:42:52;3.80;;;1.95;;
79005;SDS011;69202;45.498;-73.582;2023-05-23T05:45:18;5.75;;;1.70;;
79005;SDS011;69202;45.498;-73.582;2023-05-23T05:47:45;5.45;;;2.13;;
79005;SDS011;69202;45.498;-73.582;2023-05-23T05:50:11;7.55;;;2.05;;
79005;SDS011;69202;45.498;-73.582;2023-05-23T05:52:37;2.78;;;2.00;;
79005;SDS011;69202;45.498;-73.582;2023-05-23T05:55:07;6.20;;;1.65;;
79005;SDS011;69202;45.498;-73.582;2023-05-23T05:57:38;4.07;;;2.03;;
79005;SDS011;69202;45.498;-73.582;2023-05-23T06:00:09;7.10;;;1.67;;
79005;SDS011;69202;45.498;-73.582;2023-05-23T06:02:39;2.50;;;1.48;;
79005;SDS011;69202;45.498;-73.582;2023-05-23T06:05:12;5.32;;;2.45;;
79005;SDS011;69202;45.498;-73.582;2023-05-23T06:07:40;3.60;;;2.13;;
79005;SDS011;69202;45.498;-73.582;2023-05-23T06:10:09;3.97;;;1.98;;
79005;SDS011;69202;45.498;-73.582;2023-05-23T06:12:38;4.93;;;2.50;;
79005;SDS011;69202;45.498;-73.582;2023-05-23T06:15:05;6.75;;;2.50;;
79005;SDS011;69202;45.498;-73.582;2023-05-23T06:17:31;7.47;;;2.80;;
79005;SDS011;69202;45.498;-73.582;2023-05-23T06:19:57;6.80;;;2.80;;
79005;SDS011;69202;45.498;-73.582;2023-05-23T06:22:23;7.15;;;2.65;;
79005;SDS011;69202;45.498;-73.582;2023-05-23T06:24:49;6.00;;;3.00;;
79005;SDS011;69202;45.498;-73.582;2023-05-23T06:27:15;8.18;;;3.25;;
79005;SDS011;69202;45.498;-73.582;2023-05-23T06:29:40;6.97;;;2.80;;
79005;SDS011;69202;45.498;-73.582;2023-05-23T06:32:06;9.35;;;2.42;;
79005;SDS011;69202;45.498;-73.582;2023-05-23T06:34:32;7.05;;;2.72;;
79005;SDS011;69202;45.498;-73.582;2023-05-23T06:36:58;4.68;;;2.50;;
79005;SDS011;69202;45.498;-73.582;2023-05-23T06:39:24;5.45;;;2.58;;
79005;SDS011;69202;45.498;-73.582;2023-05-23T06:41:50;7.10;;;2.75;;
79005;SDS011;69202;45.498;-73.582;2023-05-23T06:44:16;8.55;;;2.58;;
79005;SDS011;69202;45.498;-73.582;2023-05-23T06:46:44;3.35;;;2.20;;
79005;SDS011;69202;45.498;-73.582;2023-05-23T06:49:11;5.45;;;2.40;;
79005;SDS011;69202;45.498;-73.582;2023-05-23T06:51:37;3.33;;;2.13;;
79005;SDS011;69202;45.498;-73.582;2023-05-23T06:54:03;6.47;;;2.60;;
79005;SDS011;69202;45.498;-73.582;2023-05-23T06:56:29;5.13;;;2.53;;
79005;SDS011;69202;45.498;-73.582;2023-05-23T06:58:55;8.40;;;2.60;;
79005;SDS011;69202;45.498;-73.582;2023-05-23T07:01:21;4.35;;;2.25;;
79005;SDS011;69202;45.498;-73.582;2023-05-23T07:03:47;4.45;;;2.65;;
79005;SDS011;69202;45.498;-73.582;2023-05-23T07:06:13;4.85;;;2.75;;
79005;SDS011;69202;45.498;-73.582;2023-05-23T07:08:39;9.50;;;2.42;;
79005;SDS011;69202;45.498;-73.582;2023-05-23T07:11:05;3.85;;;2.22;;
79005;SDS011;69202;45.498;-73.582;2023-05-23T07:13:31;8.10;;;3.22;;
79005;SDS011;69202;45.498;-73.582;2023-05-23T07:15:57;7.70;;;3.00;;
79005;SDS011;69202;45.498;-73.582;2023-05-23T07:18:23;6.93;;;3.15;;
79005;SDS011;69202;45.498;-73.582;2023-05-23T07:20:49;7.85;;;2.90;;
79005;SDS011;69202;45.498;-73.582;2023-05-23T07:23:15;11.93;;;3.20;;
79005;SDS011;69202;45.498;-73.582;2023-05-23T07:25:41;6.68;;;3.00;;
79005;SDS011;69202;45.498;-73.582;2023-05-23T07:28:08;6.38;;;2.72;;
79005;SDS011;69202;45.498;-73.582;2023-05-23T07:30:34;12.07;;;3.10;;
79005;SDS011;69202;45.498;-73.582;2023-05-23T07:33:00;12.98;;;2.90;;
79005;SDS011;69202;45.498;-73.582;2023-05-23T07:35:26;4.88;;;2.45;;
79005;SDS011;69202;45.498;-73.582;2023-05-23T07:37:52;6.88;;;2.40;;
79005;SDS011;69202;45.498;-73.582;2023-05-23T07:40:18;8.02;;;2.65;;
79005;SDS011;69202;45.498;-73.582;2023-05-23T07:42:45;7.55;;;2.97;;
79005;SDS011;69202;45.498;-73.582;2023-05-23T07:45:11;7.40;;;2.70;;
79005;SDS011;69202;45.498;-73.582;2023-05-23T07:47:37;5.93;;;2.72;;
79005;SDS011;69202;45.498;-73.582;2023-05-23T07:50:05;10.07;;;2.83;;
79005;SDS011;69202;45.498;-73.582;2023-05-23T07:52:31;9.10;;;3.10;;
79005;SDS011;69202;45.498;-73.582;2023-05-23T07:54:58;7.35;;;2.95;;
79005;SDS011;69202;45.498;-73.582;2023-05-23T07:57:24;11.18;;;3.55;;
79005;SDS011;69202;45.498;-73.582;2023-05-23T07:59:51;9.10;;;3.30;;
79005;SDS011;69202;45.498;-73.582;2023-05-23T08:02:19;7.45;;;2.90;;
79005;SDS011;69202;45.498;-73.582;2023-05-23T08:04:46;8.05;;;3.13;;
79005;SDS011;69202;45.498;-73.582;2023-05-23T08:07:12;4.07;;;2.63;;
79005;SDS011;69202;45.498;-73.582;2023-05-23T08:09:39;11.63;;;3.28;;
79005;SDS011;69202;45.498;-73.582;2023-05-23T08:12:05;7.70;;;2.97;;
79005;SDS011;69202;45.498;-73.582;2023-05-23T08:14:33;7.57;;;2.80;;
79005;SDS011;69202;45.498;-73.582;2023-05-23T08:17:00;6.72;;;3.28;;
79005;SDS011;69202;45.498;-73.582;2023-05-23T08:19:27;6.72;;;3.13;;
79005;SDS011;69202;45.498;-73.582;2023-05-23T08:21:53;8.68;;;3.15;;
79005;SDS011;69202;45.498;-73.582;2023-05-23T08:24:19;6.07;;;3.15;;
79005;SDS011;69202;45.498;-73.582;2023-05-23T08:26:46;6.47;;;3.13;;
79005;SDS011;69202;45.498;-73.582;2023-05-23T08:29:12;5.43;;;2.72;;
79005;SDS011;69202;45.498;-73.582;2023-05-23T08:31:39;9.13;;;3.17;;
79005;SDS011;69202;45.498;-73.582;2023-05-23T08:34:05;4.32;;;2.90;;
79005;SDS011;69202;45.498;-73.582;2023-05-23T08:36:31;11.93;;;3.42;;
79005;SDS011;69202;45.498;-73.582;2023-05-23T08:39:00;9.38;;;3.10;;
79005;SDS011;69202;45.498;-73.582;2023-05-23T08:41:26;10.02;;;3.25;;
79005;SDS011;69202;45.498;-73.582;2023-05-23T08:43:54;3.28;;;2.40;;
79005;SDS011;69202;45.498;-73.582;2023-05-23T08:46:21;4.28;;;2.88;;
79005;SDS011;69202;45.498;-73.582;2023-05-23T08:48:52;11.15;;;3.55;;
79005;SDS011;69202;45.498;-73.582;2023-05-23T08:51:24;5.88;;;3.22;;
79005;SDS011;69202;45.498;-73.582;2023-05-23T08:53:51;5.65;;;3.08;;
79005;SDS011;69202;45.498;-73.582;2023-05-23T08:56:20;7.10;;;2.97;;
79005;SDS011;69202;45.498;-73.582;2023-05-23T08:58:48;4.22;;;2.70;;
79005;SDS011;69202;45.498;-73.582;2023-05-23T09:01:17;9.93;;;3.08;;
79005;SDS011;69202;45.498;-73.582;2023-05-23T09:03:44;6.35;;;2.83;;
79005;SDS011;69202;45.498;-73.582;2023-05-23T09:06:11;5.90;;;2.67;;
79005;SDS011;69202;45.498;-73.582;2023-05-23T09:08:37;3.45;;;2.40;;
79005;SDS011;69202;45.498;-73.582;2023-05-23T09:11:04;7.22;;;2.63;;
79005;SDS011;69202;45.498;-73.582;2023-05-23T09:13:31;3.63;;;2.60;;
79005;SDS011;69202;45.498;-73.582;2023-05-23T09:18:26;6.38;;;2.70;;
79005;SDS011;69202;45.498;-73.582;2023-05-23T09:21:02;5.10;;;2.78;;
79005;SDS011;69202;45.498;-73.582;2023-05-23T09:23:30;12.65;;;3.38;;
79005;SDS011;69202;45.498;-73.582;2023-05-23T09:25:58;7.60;;;3.53;;
79005;SDS011;69202;45.498;-73.582;2023-05-23T09:28:27;9.48;;;3.50;;
79005;SDS011;69202;45.498;-73.582;2023-05-23T09:30:56;8.25;;;3.50;;
79005;SDS011;69202;45.498;-73.582;2023-05-23T09:33:44;9.65;;;3.78;;
79005;SDS011;69202;45.498;-73.582;2023-05-23T09:36:12;6.85;;;3.80;;
79005;SDS011;69202;45.498;-73.582;2023-05-23T09:38:39;10.00;;;3.85;;
79005;SDS011;69202;45.498;-73.582;2023-05-23T09:41:06;13.32;;;4.00;;
79005;SDS011;69202;45.498;-73.582;2023-05-23T09:43:32;9.65;;;3.70;;
79005;SDS011;69202;45.498;-73.582;2023-05-23T09:46:11;11.45;;;4.78;;
79005;SDS011;69202;45.498;-73.582;2023-05-23T09:48:37;10.05;;;4.88;;
79005;SDS011;69202;45.498;-73.582;2023-05-23T09:51:04;13.13;;;3.90;;
79005;SDS011;69202;45.498;-73.582;2023-05-23T09:53:33;8.63;;;4.10;;
79005;SDS011;69202;45.498;-73.582;2023-05-23T09:55:59;12.70;;;4.40;;
79005;SDS011;69202;45.498;-73.582;2023-05-23T09:58:27;9.07;;;3.80;;
79005;SDS011;69202;45.498;-73.582;2023-05-23T10:00:58;8.88;;;4.90;;
79005;SDS011;69202;45.498;-73.582;2023-05-23T10:03:30;11.63;;;4.47;;
79005;SDS011;69202;45.498;-73.582;2023-05-23T10:06:00;16.65;;;5.70;;
79005;SDS011;69202;45.498;-73.582;2023-05-23T10:08:38;10.17;;;4.97;;
79005;SDS011;69202;45.498;-73.582;2023-05-23T10:13:40;16.17;;;5.45;;
79005;SDS011;69202;45.498;-73.582;2023-05-23T10:18:43;18.45;;;5.72;;
79005;SDS011;69202;45.498;-73.582;2023-05-23T10:21:21;13.95;;;5.82;;
79005;SDS011;69202;45.498;-73.582;2023-05-23T10:23:57;14.57;;;6.05;;
79005;SDS011;69202;45.498;-73.582;2023-05-23T10:26:25;13.20;;;6.07;;
79005;SDS011;69202;45.498;-73.582;2023-05-23T10:28:52;14.10;;;5.90;;
79005;SDS011;69202;45.498;-73.582;2023-05-23T10:31:19;15.52;;;5.93;;
79005;SDS011;69202;45.498;-73.582;2023-05-23T10:33:49;17.33;;;6.20;;
79005;SDS011;69202;45.498;-73.582;2023-05-23T10:36:31;18.27;;;6.57;;
79005;SDS011;69202;45.498;-73.582;2023-05-23T10:39:07;19.10;;;6.15;;
79005;SDS011;69202;45.498;-73.582;2023-05-23T10:44:17;15.68;;;7.13;;
79005;SDS011;69202;45.498;-73.582;2023-05-23T10:46:53;26.20;;;6.18;;
79005;SDS011;69202;45.498;-73.582;2023-05-23T10:49:43;17.83;;;7.18;;
79005;SDS011;69202;45.498;-73.582;2023-05-23T10:52:15;16.40;;;6.43;;
79005;SDS011;69202;45.498;-73.582;2023-05-23T10:54:44;19.48;;;7.18;;
79005;SDS011;69202;45.498;-73.582;2023-05-23T10:57:16;19.13;;;6.93;;
79005;SDS011;69202;45.498;-73.582;2023-05-23T10:59:43;23.80;;;6.88;;
79005;SDS011;69202;45.498;-73.582;2023-05-23T11:02:15;19.50;;;6.72;;
79005;SDS011;69202;45.498;-73.582;2023-05-23T11:04:43;20.83;;;7.43;;
79005;SDS011;69202;45.498;-73.582;2023-05-23T11:07:28;18.48;;;6.18;;
79005;SDS011;69202;45.498;-73.582;2023-05-23T11:12:41;18.38;;;5.47;;
79005;SDS011;69202;45.498;-73.582;2023-05-23T11:17:50;9.00;;;3.35;;
79005;SDS011;69202;45.498;-73.582;2023-05-23T11:20:27;10.63;;;3.83;;
79005;SDS011;69202;45.498;-73.582;2023-05-23T11:22:59;9.80;;;3.38;;
79005;SDS011;69202;45.498;-73.582;2023-05-23T11:25:39;10.80;;;3.78;;
79005;SDS011;69202;45.498;-73.582;2023-05-23T11:28:09;9.02;;;3.70;;
79005;SDS011;69202;45.498;-73.582;2023-05-23T11:30:36;7.20;;;3.33;;
79005;SDS011;69202;45.498;-73.582;2023-05-23T11:33:07;9.93;;;3.30;;
79005;SDS011;69202;45.498;-73.582;2023-05-23T11:35:38;8.50;;;3.80;;
79005;SDS011;69202;45.498;-73.582;2023-05-23T11:38:09;11.75;;;4.13;;
79005;SDS011;69202;45.498;-73.582;2023-05-23T11:40:36;9.35;;;3.90;;
79005;SDS011;69202;45.498;-73.582;2023-05-23T11:43:04;9.25;;;4.10;;
79005;SDS011;69202;45.498;-73.582;2023-05-23T11:45:34;15.15;;;4.22;;
79005;SDS011;69202;45.498;-73.582;2023-05-23T11:48:04;12.88;;;4.20;;
79005;SDS011;69202;45.498;-73.582;2023-05-23T11:50:31;14.57;;;4.53;;
79005;SDS011;69202;45.498;-73.582;2023-05-23T11:52:58;17.17;;;4.72;;
79005;SDS011;69202;45.498;-73.582;2023-05-23T11:55:24;12.20;;;4.15;;
79005;SDS011;69202;45.498;-73.582;2023-05-23T11:57:50;10.20;;;3.92;;
79005;SDS011;69202;45.498;-73.582;2023-05-23T12:00:16;11.77;;;4.80;;
79005;SDS011;69202;45.498;-73.582;2023-05-23T12:02:43;12.68;;;5.00;;
79005;SDS011;69202;45.498;-73.582;2023-05-23T12:05:12;14.10;;;4.55;;
79005;SDS011;69202;45.498;-73.582;2023-05-23T12:07:39;14.23;;;4.72;;
79005;SDS011;69202;45.498;-73.582;2023-05-23T12:10:06;10.13;;;4.60;;
79005;SDS011;69202;45.498;-73.582;2023-05-23T12:12:33;13.43;;;4.50;;
79005;SDS011;69202;45.498;-73.582;2023-05-23T12:14:59;11.00;;;4.47;;
79005;SDS011;69202;45.498;-73.582;2023-05-23T12:17:25;11.52;;;4.38;;
79005;SDS011;69202;45.498;-73.582;2023-05-23T12:19:51;12.93;;;4.60;;
79005;SDS011;69202;45.498;-73.582;2023-05-23T12:22:24;11.23;;;4.97;;
79005;SDS011;69202;45.498;-73.582;2023-05-23T12:24:57;10.32;;;4.68;;
79005;SDS011;69202;45.498;-73.582;2023-05-23T12:27:26;14.25;;;4.90;;
79005;SDS011;69202;45.498;-73.582;2023-05-23T12:30:17;12.13;;;4.10;;
79005;SDS011;69202;45.498;-73.582;2023-05-23T12:32:43;14.93;;;4.43;;
79005;SDS011;69202;45.498;-73.582;2023-05-23T12:35:11;15.32;;;4.43;;
79005;SDS011;69202;45.498;-73.582;2023-05-23T12:37:39;13.30;;;4.68;;
79005;SDS011;69202;45.498;-73.582;2023-05-23T12:40:11;13.02;;;4.32;;
79005;SDS011;69202;45.498;-73.582;2023-05-23T12:42:45;16.98;;;5.50;;
79005;SDS011;69202;45.498;-73.582;2023-05-23T12:45:15;10.85;;;4.40;;
79005;SDS011;69202;45.498;-73.582;2023-05-23T12:47:41;16.75;;;6.25;;
79005;SDS011;69202;45.498;-73.582;2023-05-23T12:50:08;7.68;;;4.03;;
79005;SDS011;69202;45.498;-73.582;2023-05-23T12:52:35;7.10;;;4.15;;
79005;SDS011;69202;45.498;-73.582;2023-05-23T12:55:02;7.38;;;4.55;;
79005;SDS011;69202;45.498;-73.582;2023-05-23T12:57:28;11.20;;;4.65;;
79005;SDS011;69202;45.498;-73.582;2023-05-23T12:59:55;8.55;;;3.83;;
79005;SDS011;69202;45.498;-73.582;2023-05-23T13:02:20;11.35;;;4.68;;
79005;SDS011;69202;45.498;-73.582;2023-05-23T13:04:47;10.18;;;4.82;;
79005;SDS011;69202;45.498;-73.582;2023-05-23T13:07:13;9.88;;;4.35;;
79005;SDS011;69202;45.498;-73.582;2023-05-23T13:09:39;8.18;;;3.88;;
79005;SDS011;69202;45.498;-73.582;2023-05-23T13:12:04;6.07;;;3.92;;
79005;SDS011;69202;45.498;-73.582;2023-05-23T13:14:31;6.90;;;3.50;;
79005;SDS011;69202;45.498;-73.582;2023-05-23T13:16:56;7.45;;;3.72;;
79005;SDS011;69202;45.498;-73.582;2023-05-23T13:19:22;13.43;;;4.80;;
79005;SDS011;69202;45.498;-73.582;2023-05-23T13:21:48;18.25;;;4.80;;
79005;SDS011;69202;45.498;-73.582;2023-05-23T13:24:14;12.52;;;4.07;;
79005;SDS011;69202;45.498;-73.582;2023-05-23T13:26:41;11.20;;;4.70;;
79005;SDS011;69202;45.498;-73.582;2023-05-23T13:29:06;8.07;;;4.07;;
79005;SDS011;69202;45.498;-73.582;2023-05-23T13:31:32;14.35;;;4.45;;
79005;SDS011;69202;45.498;-73.582;2023-05-23T13:33:58;9.55;;;4.20;;
79005;SDS011;69202;45.498;-73.582;2023-05-23T13:36:24;11.32;;;4.03;;
79005;SDS011;69202;45.498;-73.582;2023-05-23T13:38:50;7.35;;;3.75;;
79005;SDS011;69202;45.498;-73.582;2023-05-23T13:41:16;10.07;;;4.78;;
79005;SDS011;69202;45.498;-73.582;2023-05-23T13:43:42;19.42;;;4.13;;
79005;SDS011;69202;45.498;-73.582;2023-05-23T13:46:08;8.73;;;4.25;;
79005;SDS011;69202;45.498;-73.582;2023-05-23T13:48:34;11.52;;;3.95;;
79005;SDS011;69202;45.498;-73.582;2023-05-23T13:51:00;11.07;;;4.75;;
79005;SDS011;69202;45.498;-73.582;2023-05-23T13:53:26;18.42;;;4.82;;
79005;SDS011;69202;45.498;-73.582;2023-05-23T13:55:52;9.05;;;4.40;;
79005;SDS011;69202;45.498;-73.582;2023-05-23T13:58:19;10.75;;;3.88;;
79005;SDS011;69202;45.498;-73.582;2023-05-23T14:00:45;10.00;;;3.85;;
79005;SDS011;69202;45.498;-73.582;2023-05-23T14:03:11;9.48;;;4.35;;
79005;SDS011;69202;45.498;-73.582;2023-05-23T14:05:39;13.55;;;4.63;;
79005;SDS011;69202;45.498;-73.582;2023-05-23T14:08:05;8.70;;;4.50;;
79005;SDS011;69202;45.498;-73.582;2023-05-23T14:10:31;12.82;;;4.90;;
79005;SDS011;69202;45.498;-73.582;2023-05-23T14:12:58;12.20;;;4.85;;
79005;SDS011;69202;45.498;-73.582;2023-05-23T14:15:24;11.43;;;4.88;;
79005;SDS011;69202;45.498;-73.582;2023-05-23T14:17:51;9.70;;;4.63;;
79005;SDS011;69202;45.498;-73.582;2023-05-23T14:20:20;12.55;;;4.85;;
79005;SDS011;69202;45.498;-73.582;2023-05-23T14:22:47;10.65;;;4.13;;
79005;SDS011;69202;45.498;-73.582;2023-05-23T14:25:14;13.98;;;4.55;;
79005;SDS011;69202;45.498;-73.582;2023-05-23T14:27:40;9.90;;;4.18;;
79005;SDS011;69202;45.498;-73.582;2023-05-23T14:30:07;13.27;;;4.72;;
79005;SDS011;69202;45.498;-73.582;2023-05-23T14:32:33;11.60;;;4.78;;
79005;SDS011;69202;45.498;-73.582;2023-05-23T14:35:03;11.90;;;3.75;;
79005;SDS011;69202;45.498;-73.582;2023-05-23T14:37:30;11.52;;;3.50;;
79005;SDS011;69202;45.498;-73.582;2023-05-23T14:39:56;7.30;;;3.58;;
79005;SDS011;69202;45.498;-73.582;2023-05-23T14:42:22;8.55;;;2.80;;
79005;SDS011;69202;45.498;-73.582;2023-05-23T14:44:48;9.73;;;3.50;;